sensor_id;sensor_type;location;lat;lon;timestamp;P1;durP1;ratioP1;P2;durP2;ratioP2
77430;SDS011;66498;48.564;19.272;2023-08-12T00:00:50;7.15;;;4.75;;
77430;SDS011;66498;48.564;19.272;2023-08-12T00:03:16;6.00;;;4.97;;
77430;SDS011;66498;48.564;19.272;2023-08-12T00:05:42;8.93;;;5.05;;
77430;SDS011;66498;48.564;19.272;2023-08-12T00:08:10;7.10;;;5.00;;
77430;SDS011;66498;48.564;19.272;2023-08-12T00:10:35;6.55;;;4.85;;
77430;SDS011;66498;48.564;19.272;2023-08-12T00:13:01;7.03;;;5.40;;
77430;SDS011;66498;48.564;19.272;2023-08-12T00:15:26;7.43;;;5.20;;
77430;SDS011;66498;48.564;19.272;2023-08-12T00:17:52;6.78;;;5.13;;
77430;SDS011;66498;48.564;19.272;2023-08-12T00:20:17;5.82;;;5.20;;
77430;SDS011;66498;48.564;19.272;2023-08-12T00:22:43;5.75;;;4.97;;
77430;SDS011;66498;48.564;19.272;2023-08-12T00:25:09;6.32;;;4.88;;
77430;SDS011;66498;48.564;19.272;2023-08-12T00:27:35;5.35;;;4.70;;
77430;SDS011;66498;48.564;19.272;2023-08-12T00:30:01;6.50;;;4.93;;
77430;SDS011;66498;48.564;19.272;2023-08-12T00:32:26;6.22;;;4.90;;
77430;SDS011;66498;48.564;19.272;2023-08-12T00:34:52;6.60;;;4.57;;
77430;SDS011;66498;48.564;19.272;2023-08-12T00:37:17;6.47;;;4.85;;
77430;SDS011;66498;48.564;19.272;2023-08-12T00:39:42;7.43;;;5.07;;
77430;SDS011;66498;48.564;19.272;2023-08-12T00:42:08;7.05;;;5.00;;
77430;SDS011;66498;48.564;19.272;2023-08-12T00:44:34;6.75;;;5.60;;
77430;SDS011;66498;48.564;19.272;2023-08-12T00:47:00;8.38;;;5.25;;
77430;SDS011;66498;48.564;19.272;2023-08-12T00:49:26;6.15;;;4.97;;
77430;SDS011;66498;48.564;19.272;2023-08-12T00:51:52;6.47;;;5.10;;
77430;SDS011;66498;48.564;19.272;2023-08-12T00:54:19;7.28;;;5.22;;
77430;SDS011;66498;48.564;19.272;2023-08-12T00:56:47;6.22;;;5.00;;
77430;SDS011;66498;48.564;19.272;2023-08-12T00:59:14;6.25;;;4.75;;
77430;SDS011;66498;48.564;19.272;2023-08-12T01:01:42;6.22;;;5.30;;
77430;SDS011;66498;48.564;19.272;2023-08-12T01:04:09;6.30;;;5.28;;
77430;SDS011;66498;48.564;19.272;2023-08-12T01:06:35;5.97;;;5.20;;
77430;SDS011;66498;48.564;19.272;2023-08-12T01:09:02;6.30;;;5.20;;
77430;SDS011;66498;48.564;19.272;2023-08-12T01:11:46;5.57;;;4.82;;
77430;SDS011;66498;48.564;19.272;2023-08-12T01:14:33;4.95;;;4.35;;
77430;SDS011;66498;48.564;19.272;2023-08-12T01:17:05;5.68;;;4.50;;
77430;SDS011;66498;48.564;19.272;2023-08-12T01:19:37;5.32;;;4.60;;
77430;SDS011;66498;48.564;19.272;2023-08-12T01:22:04;5.30;;;4.70;;
77430;SDS011;66498;48.564;19.272;2023-08-12T01:24:34;5.28;;;4.38;;
77430;SDS011;66498;48.564;19.272;2023-08-12T01:27:06;4.78;;;3.83;;
77430;SDS011;66498;48.564;19.272;2023-08-12T01:29:33;7.72;;;4.25;;
77430;SDS011;66498;48.564;19.272;2023-08-12T01:37:17;5.07;;;4.53;;
77430;SDS011;66498;48.564;19.272;2023-08-12T01:39:49;5.70;;;4.43;;
77430;SDS011;66498;48.564;19.272;2023-08-12T01:42:18;6.90;;;5.15;;
77430;SDS011;66498;48.564;19.272;2023-08-12T01:44:45;7.43;;;5.28;;
77430;SDS011;66498;48.564;19.272;2023-08-12T01:47:11;4.88;;;4.03;;
77430;SDS011;66498;48.564;19.272;2023-08-12T01:49:36;6.63;;;4.28;;
77430;SDS011;66498;48.564;19.272;2023-08-12T01:52:02;4.45;;;4.03;;
77430;SDS011;66498;48.564;19.272;2023-08-12T01:54:28;4.80;;;4.30;;
77430;SDS011;66498;48.564;19.272;2023-08-12T01:57:00;4.85;;;4.28;;
77430;SDS011;66498;48.564;19.272;2023-08-12T01:59:26;7.05;;;4.70;;
77430;SDS011;66498;48.564;19.272;2023-08-12T02:01:52;6.68;;;4.80;;
77430;SDS011;66498;48.564;19.272;2023-08-12T02:04:17;5.78;;;4.97;;
77430;SDS011;66498;48.564;19.272;2023-08-12T02:06:43;7.28;;;4.88;;
77430;SDS011;66498;48.564;19.272;2023-08-12T02:09:08;7.72;;;5.03;;
77430;SDS011;66498;48.564;19.272;2023-08-12T02:11:34;6.03;;;4.70;;
77430;SDS011;66498;48.564;19.272;2023-08-12T02:13:59;7.43;;;5.18;;
77430;SDS011;66498;48.564;19.272;2023-08-12T02:16:24;6.32;;;5.30;;
77430;SDS011;66498;48.564;19.272;2023-08-12T02:18:50;6.25;;;5.28;;
77430;SDS011;66498;48.564;19.272;2023-08-12T02:21:15;6.25;;;5.35;;
77430;SDS011;66498;48.564;19.272;2023-08-12T02:23:41;6.72;;;4.95;;
77430;SDS011;66498;48.564;19.272;2023-08-12T02:26:09;9.23;;;5.05;;
77430;SDS011;66498;48.564;19.272;2023-08-12T02:28:34;5.63;;;4.95;;
77430;SDS011;66498;48.564;19.272;2023-08-12T02:31:00;5.43;;;4.80;;
77430;SDS011;66498;48.564;19.272;2023-08-12T02:33:26;6.18;;;5.15;;
77430;SDS011;66498;48.564;19.272;2023-08-12T02:35:54;6.03;;;5.28;;
77430;SDS011;66498;48.564;19.272;2023-08-12T02:38:20;5.97;;;5.22;;
77430;SDS011;66498;48.564;19.272;2023-08-12T02:40:49;6.47;;;4.85;;
77430;SDS011;66498;48.564;19.272;2023-08-12T02:43:16;6.20;;;4.97;;
77430;SDS011;66498;48.564;19.272;2023-08-12T02:45:41;6.07;;;5.47;;
77430;SDS011;66498;48.564;19.272;2023-08-12T02:48:09;6.75;;;5.13;;
77430;SDS011;66498;48.564;19.272;2023-08-12T02:50:35;6.30;;;5.50;;
77430;SDS011;66498;48.564;19.272;2023-08-12T02:53:00;6.93;;;5.22;;
77430;SDS011;66498;48.564;19.272;2023-08-12T02:55:26;5.60;;;5.00;;
77430;SDS011;66498;48.564;19.272;2023-08-12T02:57:51;6.32;;;5.40;;
77430;SDS011;66498;48.564;19.272;2023-08-12T03:00:17;6.90;;;5.82;;
77430;SDS011;66498;48.564;19.272;2023-08-12T03:02:42;6.82;;;6.10;;
77430;SDS011;66498;48.564;19.272;2023-08-12T03:05:08;6.60;;;5.60;;
77430;SDS011;66498;48.564;19.272;2023-08-12T03:07:34;6.28;;;5.15;;
77430;SDS011;66498;48.564;19.272;2023-08-12T03:09:59;8.18;;;5.40;;
77430;SDS011;66498;48.564;19.272;2023-08-12T03:12:25;9.05;;;5.53;;
77430;SDS011;66498;48.564;19.272;2023-08-12T03:14:50;6.35;;;5.70;;
77430;SDS011;66498;48.564;19.272;2023-08-12T03:17:16;5.45;;;4.82;;
77430;SDS011;66498;48.564;19.272;2023-08-12T03:19:41;6.70;;;4.95;;
77430;SDS011;66498;48.564;19.272;2023-08-12T03:22:07;6.47;;;5.20;;
77430;SDS011;66498;48.564;19.272;2023-08-12T03:24:33;6.13;;;5.53;;
77430;SDS011;66498;48.564;19.272;2023-08-12T03:26:58;5.45;;;4.85;;
77430;SDS011;66498;48.564;19.272;2023-08-12T03:29:24;8.00;;;5.10;;
77430;SDS011;66498;48.564;19.272;2023-08-12T03:31:50;7.45;;;5.15;;
77430;SDS011;66498;48.564;19.272;2023-08-12T03:34:15;11.80;;;5.50;;
77430;SDS011;66498;48.564;19.272;2023-08-12T03:36:41;5.57;;;5.07;;
77430;SDS011;66498;48.564;19.272;2023-08-12T03:39:07;5.65;;;4.85;;
77430;SDS011;66498;48.564;19.272;2023-08-12T03:41:32;6.13;;;4.88;;
77430;SDS011;66498;48.564;19.272;2023-08-12T03:43:58;6.63;;;4.82;;
77430;SDS011;66498;48.564;19.272;2023-08-12T03:46:24;7.38;;;5.00;;
77430;SDS011;66498;48.564;19.272;2023-08-12T03:48:49;6.38;;;4.90;;
77430;SDS011;66498;48.564;19.272;2023-08-12T03:51:15;7.40;;;5.10;;
77430;SDS011;66498;48.564;19.272;2023-08-12T03:53:41;5.82;;;5.10;;
77430;SDS011;66498;48.564;19.272;2023-08-12T03:56:06;7.28;;;5.35;;
77430;SDS011;66498;48.564;19.272;2023-08-12T03:58:32;5.63;;;5.05;;
77430;SDS011;66498;48.564;19.272;2023-08-12T04:00:57;5.70;;;4.85;;
77430;SDS011;66498;48.564;19.272;2023-08-12T04:03:24;5.20;;;4.70;;
77430;SDS011;66498;48.564;19.272;2023-08-12T04:05:50;6.70;;;5.30;;
77430;SDS011;66498;48.564;19.272;2023-08-12T04:08:21;9.40;;;5.53;;
77430;SDS011;66498;48.564;19.272;2023-08-12T04:10:47;6.43;;;5.18;;
77430;SDS011;66498;48.564;19.272;2023-08-12T04:13:14;5.18;;;4.68;;
77430;SDS011;66498;48.564;19.272;2023-08-12T04:15:40;6.60;;;5.43;;
77430;SDS011;66498;48.564;19.272;2023-08-12T04:18:06;5.93;;;5.07;;
77430;SDS011;66498;48.564;19.272;2023-08-12T04:20:33;7.10;;;5.68;;
77430;SDS011;66498;48.564;19.272;2023-08-12T04:22:59;7.20;;;6.25;;
77430;SDS011;66498;48.564;19.272;2023-08-12T04:25:25;6.65;;;6.00;;
77430;SDS011;66498;48.564;19.272;2023-08-12T04:27:50;7.93;;;5.80;;
77430;SDS011;66498;48.564;19.272;2023-08-12T04:30:16;9.15;;;6.22;;
77430;SDS011;66498;48.564;19.272;2023-08-12T04:32:44;7.20;;;6.10;;
77430;SDS011;66498;48.564;19.272;2023-08-12T04:35:10;6.13;;;5.40;;
77430;SDS011;66498;48.564;19.272;2023-08-12T04:37:36;10.18;;;6.10;;
77430;SDS011;66498;48.564;19.272;2023-08-12T04:40:02;6.97;;;5.85;;
77430;SDS011;66498;48.564;19.272;2023-08-12T04:42:32;7.88;;;5.88;;
77430;SDS011;66498;48.564;19.272;2023-08-12T04:44:58;8.25;;;6.20;;
77430;SDS011;66498;48.564;19.272;2023-08-12T04:47:23;7.97;;;6.07;;
77430;SDS011;66498;48.564;19.272;2023-08-12T04:49:49;6.65;;;6.03;;
77430;SDS011;66498;48.564;19.272;2023-08-12T04:52:15;7.82;;;6.40;;
77430;SDS011;66498;48.564;19.272;2023-08-12T04:54:40;8.15;;;6.03;;
77430;SDS011;66498;48.564;19.272;2023-08-12T04:57:06;7.68;;;6.00;;
77430;SDS011;66498;48.564;19.272;2023-08-12T04:59:31;6.80;;;6.10;;
77430;SDS011;66498;48.564;19.272;2023-08-12T05:01:57;7.30;;;6.55;;
77430;SDS011;66498;48.564;19.272;2023-08-12T05:04:22;6.95;;;6.20;;
77430;SDS011;66498;48.564;19.272;2023-08-12T05:06:48;7.90;;;6.47;;
77430;SDS011;66498;48.564;19.272;2023-08-12T05:09:14;7.45;;;6.28;;
77430;SDS011;66498;48.564;19.272;2023-08-12T05:11:40;10.50;;;6.50;;
77430;SDS011;66498;48.564;19.272;2023-08-12T05:14:06;8.55;;;6.40;;
77430;SDS011;66498;48.564;19.272;2023-08-12T05:16:31;8.27;;;6.63;;
77430;SDS011;66498;48.564;19.272;2023-08-12T05:18:57;6.50;;;5.80;;
77430;SDS011;66498;48.564;19.272;2023-08-12T05:21:22;8.85;;;6.88;;
77430;SDS011;66498;48.564;19.272;2023-08-12T05:23:48;8.20;;;7.10;;
77430;SDS011;66498;48.564;19.272;2023-08-12T05:26:14;8.05;;;6.38;;
77430;SDS011;66498;48.564;19.272;2023-08-12T05:28:40;7.20;;;6.50;;
77430;SDS011;66498;48.564;19.272;2023-08-12T05:31:08;8.63;;;6.80;;
77430;SDS011;66498;48.564;19.272;2023-08-12T05:33:34;8.13;;;6.80;;
77430;SDS011;66498;48.564;19.272;2023-08-12T05:36:00;7.80;;;7.00;;
77430;SDS011;66498;48.564;19.272;2023-08-12T05:38:25;8.15;;;6.28;;
77430;SDS011;66498;48.564;19.272;2023-08-12T05:40:51;6.82;;;6.03;;
77430;SDS011;66498;48.564;19.272;2023-08-12T05:43:17;6.35;;;5.70;;
77430;SDS011;66498;48.564;19.272;2023-08-12T05:45:46;7.18;;;5.70;;
77430;SDS011;66498;48.564;19.272;2023-08-12T05:48:13;10.82;;;6.32;;
77430;SDS011;66498;48.564;19.272;2023-08-12T05:50:38;7.93;;;5.60;;
77430;SDS011;66498;48.564;19.272;2023-08-12T05:53:04;7.88;;;6.10;;
77430;SDS011;66498;48.564;19.272;2023-08-12T05:55:29;8.93;;;6.50;;
77430;SDS011;66498;48.564;19.272;2023-08-12T05:57:55;10.13;;;6.47;;
77430;SDS011;66498;48.564;19.272;2023-08-12T06:00:20;7.45;;;6.05;;
77430;SDS011;66498;48.564;19.272;2023-08-12T06:02:46;6.68;;;5.95;;
77430;SDS011;66498;48.564;19.272;2023-08-12T06:05:11;8.23;;;6.72;;
77430;SDS011;66498;48.564;19.272;2023-08-12T06:07:37;8.15;;;5.95;;
77430;SDS011;66498;48.564;19.272;2023-08-12T06:10:03;7.57;;;6.30;;
77430;SDS011;66498;48.564;19.272;2023-08-12T06:12:29;7.10;;;6.15;;
77430;SDS011;66498;48.564;19.272;2023-08-12T06:14:55;7.40;;;6.18;;
77430;SDS011;66498;48.564;19.272;2023-08-12T06:17:20;7.93;;;6.43;;
77430;SDS011;66498;48.564;19.272;2023-08-12T06:19:46;7.72;;;6.63;;
77430;SDS011;66498;48.564;19.272;2023-08-12T06:22:11;8.93;;;6.88;;
77430;SDS011;66498;48.564;19.272;2023-08-12T06:24:37;8.23;;;6.20;;
77430;SDS011;66498;48.564;19.272;2023-08-12T06:27:02;8.45;;;6.47;;
77430;SDS011;66498;48.564;19.272;2023-08-12T06:29:28;7.85;;;6.18;;
77430;SDS011;66498;48.564;19.272;2023-08-12T06:31:54;6.55;;;5.20;;
77430;SDS011;66498;48.564;19.272;2023-08-12T06:34:19;8.07;;;5.70;;
77430;SDS011;66498;48.564;19.272;2023-08-12T06:36:45;6.55;;;5.30;;
77430;SDS011;66498;48.564;19.272;2023-08-12T06:39:11;7.15;;;5.50;;
77430;SDS011;66498;48.564;19.272;2023-08-12T06:41:38;7.13;;;5.45;;
77430;SDS011;66498;48.564;19.272;2023-08-12T06:44:05;6.68;;;4.78;;
77430;SDS011;66498;48.564;19.272;2023-08-12T06:46:31;7.03;;;4.90;;
77430;SDS011;66498;48.564;19.272;2023-08-12T06:48:57;5.20;;;4.70;;
77430;SDS011;66498;48.564;19.272;2023-08-12T06:51:24;10.90;;;4.90;;
77430;SDS011;66498;48.564;19.272;2023-08-12T06:53:49;8.48;;;4.88;;
77430;SDS011;66498;48.564;19.272;2023-08-12T06:56:15;5.32;;;4.40;;
77430;SDS011;66498;48.564;19.272;2023-08-12T06:58:41;6.18;;;4.40;;
77430;SDS011;66498;48.564;19.272;2023-08-12T07:01:07;6.53;;;4.80;;
77430;SDS011;66498;48.564;19.272;2023-08-12T07:03:32;5.75;;;4.00;;
77430;SDS011;66498;48.564;19.272;2023-08-12T07:05:58;5.78;;;4.70;;
77430;SDS011;66498;48.564;19.272;2023-08-12T07:08:24;5.78;;;4.60;;
77430;SDS011;66498;48.564;19.272;2023-08-12T07:10:49;7.28;;;4.70;;
77430;SDS011;66498;48.564;19.272;2023-08-12T07:13:15;6.35;;;4.20;;
77430;SDS011;66498;48.564;19.272;2023-08-12T07:15:41;5.10;;;4.22;;
77430;SDS011;66498;48.564;19.272;2023-08-12T07:18:06;4.72;;;3.85;;
77430;SDS011;66498;48.564;19.272;2023-08-12T07:20:32;6.40;;;4.85;;
77430;SDS011;66498;48.564;19.272;2023-08-12T07:22:58;5.43;;;4.40;;
77430;SDS011;66498;48.564;19.272;2023-08-12T07:25:23;5.68;;;4.40;;
77430;SDS011;66498;48.564;19.272;2023-08-12T07:27:49;10.60;;;4.25;;
77430;SDS011;66498;48.564;19.272;2023-08-12T07:30:15;5.47;;;3.88;;
77430;SDS011;66498;48.564;19.272;2023-08-12T07:32:41;6.15;;;4.32;;
77430;SDS011;66498;48.564;19.272;2023-08-12T07:35:07;6.50;;;4.57;;
77430;SDS011;66498;48.564;19.272;2023-08-12T07:37:33;5.30;;;3.90;;
77430;SDS011;66498;48.564;19.272;2023-08-12T07:39:59;5.55;;;4.00;;
77430;SDS011;66498;48.564;19.272;2023-08-12T07:42:25;5.85;;;3.95;;
77430;SDS011;66498;48.564;19.272;2023-08-12T07:44:50;5.03;;;3.85;;
77430;SDS011;66498;48.564;19.272;2023-08-12T07:47:16;4.60;;;3.70;;
77430;SDS011;66498;48.564;19.272;2023-08-12T07:49:42;5.85;;;4.05;;
77430;SDS011;66498;48.564;19.272;2023-08-12T07:52:08;5.10;;;3.67;;
77430;SDS011;66498;48.564;19.272;2023-08-12T07:54:34;4.82;;;3.85;;
77430;SDS011;66498;48.564;19.272;2023-08-12T07:57:00;4.63;;;3.65;;
77430;SDS011;66498;48.564;19.272;2023-08-12T07:59:26;4.47;;;3.65;;
77430;SDS011;66498;48.564;19.272;2023-08-12T08:01:52;5.45;;;4.13;;
77430;SDS011;66498;48.564;19.272;2023-08-12T08:04:17;4.75;;;3.88;;
77430;SDS011;66498;48.564;19.272;2023-08-12T08:06:43;5.75;;;3.97;;
77430;SDS011;66498;48.564;19.272;2023-08-12T08:09:09;5.25;;;4.05;;
77430;SDS011;66498;48.564;19.272;2023-08-12T08:11:35;6.78;;;4.32;;
77430;SDS011;66498;48.564;19.272;2023-08-12T08:14:03;5.32;;;3.90;;
77430;SDS011;66498;48.564;19.272;2023-08-12T08:16:28;4.28;;;3.38;;
77430;SDS011;66498;48.564;19.272;2023-08-12T08:18:54;4.30;;;3.30;;
77430;SDS011;66498;48.564;19.272;2023-08-12T08:21:19;4.20;;;3.20;;
77430;SDS011;66498;48.564;19.272;2023-08-12T08:23:45;4.78;;;3.25;;
77430;SDS011;66498;48.564;19.272;2023-08-12T08:26:11;7.22;;;3.55;;
77430;SDS011;66498;48.564;19.272;2023-08-12T08:28:38;4.28;;;3.42;;
77430;SDS011;66498;48.564;19.272;2023-08-12T08:31:04;4.82;;;3.50;;
77430;SDS011;66498;48.564;19.272;2023-08-12T08:33:29;4.57;;;3.72;;
77430;SDS011;66498;48.564;19.272;2023-08-12T08:35:55;4.30;;;3.53;;
77430;SDS011;66498;48.564;19.272;2023-08-12T08:38:20;4.32;;;3.33;;
77430;SDS011;66498;48.564;19.272;2023-08-12T08:40:45;7.45;;;3.42;;
77430;SDS011;66498;48.564;19.272;2023-08-12T08:43:14;6.53;;;3.20;;
77430;SDS011;66498;48.564;19.272;2023-08-12T08:45:44;6.50;;;3.15;;
77430;SDS011;66498;48.564;19.272;2023-08-12T08:48:10;4.03;;;3.08;;
77430;SDS011;66498;48.564;19.272;2023-08-12T08:50:37;7.00;;;3.22;;
77430;SDS011;66498;48.564;19.272;2023-08-12T08:53:04;4.03;;;3.13;;
77430;SDS011;66498;48.564;19.272;2023-08-12T08:55:31;5.07;;;3.25;;
77430;SDS011;66498;48.564;19.272;2023-08-12T08:57:57;3.92;;;3.00;;
77430;SDS011;66498;48.564;19.272;2023-08-12T09:00:23;5.32;;;3.10;;
77430;SDS011;66498;48.564;19.272;2023-08-12T09:02:49;5.25;;;2.92;;
77430;SDS011;66498;48.564;19.272;2023-08-12T09:05:16;5.68;;;3.38;;
77430;SDS011;66498;48.564;19.272;2023-08-12T09:07:43;5.05;;;3.10;;
77430;SDS011;66498;48.564;19.272;2023-08-12T09:10:09;5.00;;;3.13;;
77430;SDS011;66498;48.564;19.272;2023-08-12T09:12:35;4.63;;;3.03;;
77430;SDS011;66498;48.564;19.272;2023-08-12T09:15:01;3.60;;;2.85;;
77430;SDS011;66498;48.564;19.272;2023-08-12T09:17:28;4.50;;;3.10;;
77430;SDS011;66498;48.564;19.272;2023-08-12T09:19:54;3.85;;;3.05;;
77430;SDS011;66498;48.564;19.272;2023-08-12T09:22:20;4.47;;;3.05;;
77430;SDS011;66498;48.564;19.272;2023-08-12T09:24:49;3.28;;;2.88;;
77430;SDS011;66498;48.564;19.272;2023-08-12T09:27:17;5.38;;;3.30;;
77430;SDS011;66498;48.564;19.272;2023-08-12T09:29:43;4.65;;;3.20;;
77430;SDS011;66498;48.564;19.272;2023-08-12T09:32:12;4.72;;;3.05;;
77430;SDS011;66498;48.564;19.272;2023-08-12T09:34:51;3.97;;;3.28;;
77430;SDS011;66498;48.564;19.272;2023-08-12T09:37:22;4.50;;;3.15;;
77430;SDS011;66498;48.564;19.272;2023-08-12T09:39:50;3.85;;;3.17;;
77430;SDS011;66498;48.564;19.272;2023-08-12T09:42:17;4.88;;;2.75;;
77430;SDS011;66498;48.564;19.272;2023-08-12T09:44:44;3.92;;;3.20;;
77430;SDS011;66498;48.564;19.272;2023-08-12T09:47:10;4.45;;;3.22;;
77430;SDS011;66498;48.564;19.272;2023-08-12T09:49:36;5.00;;;2.80;;
77430;SDS011;66498;48.564;19.272;2023-08-12T09:52:03;5.80;;;3.10;;
77430;SDS011;66498;48.564;19.272;2023-08-12T09:54:36;4.03;;;3.20;;
77430;SDS011;66498;48.564;19.272;2023-08-12T09:57:02;4.45;;;3.17;;
77430;SDS011;66498;48.564;19.272;2023-08-12T09:59:30;4.90;;;2.90;;
77430;SDS011;66498;48.564;19.272;2023-08-12T10:02:00;7.88;;;2.90;;
77430;SDS011;66498;48.564;19.272;2023-08-12T10:04:37;5.88;;;3.20;;
77430;SDS011;66498;48.564;19.272;2023-08-12T10:07:10;3.45;;;2.80;;
77430;SDS011;66498;48.564;19.272;2023-08-12T10:09:39;3.97;;;2.75;;
77430;SDS011;66498;48.564;19.272;2023-08-12T10:12:05;3.30;;;2.97;;
77430;SDS011;66498;48.564;19.272;2023-08-12T10:14:32;4.13;;;2.92;;
77430;SDS011;66498;48.564;19.272;2023-08-12T10:16:58;4.75;;;2.85;;
77430;SDS011;66498;48.564;19.272;2023-08-12T10:19:26;3.15;;;2.55;;
77430;SDS011;66498;48.564;19.272;2023-08-12T10:21:54;4.43;;;2.97;;
77430;SDS011;66498;48.564;19.272;2023-08-12T10:24:23;4.20;;;2.90;;
77430;SDS011;66498;48.564;19.272;2023-08-12T10:26:50;5.55;;;2.85;;
77430;SDS011;66498;48.564;19.272;2023-08-12T10:29:18;4.65;;;2.83;;
77430;SDS011;66498;48.564;19.272;2023-08-12T10:31:44;3.45;;;2.80;;
77430;SDS011;66498;48.564;19.272;2023-08-12T10:34:21;3.60;;;2.80;;
77430;SDS011;66498;48.564;19.272;2023-08-12T10:36:48;3.38;;;2.80;;
77430;SDS011;66498;48.564;19.272;2023-08-12T10:39:21;5.55;;;3.00;;
77430;SDS011;66498;48.564;19.272;2023-08-12T10:41:51;4.40;;;2.90;;
77430;SDS011;66498;48.564;19.272;2023-08-12T10:44:21;3.30;;;2.88;;
77430;SDS011;66498;48.564;19.272;2023-08-12T10:46:54;3.70;;;2.63;;
77430;SDS011;66498;48.564;19.272;2023-08-12T10:49:20;3.50;;;2.67;;
77430;SDS011;66498;48.564;19.272;2023-08-12T10:51:53;4.50;;;2.88;;
77430;SDS011;66498;48.564;19.272;2023-08-12T10:54:26;4.03;;;3.00;;
77430;SDS011;66498;48.564;19.272;2023-08-12T11:02:21;4.22;;;2.63;;
77430;SDS011;66498;48.564;19.272;2023-08-12T11:07:33;3.85;;;2.53;;
77430;SDS011;66498;48.564;19.272;2023-08-12T11:15:40;5.15;;;2.35;;
77430;SDS011;66498;48.564;19.272;2023-08-12T11:18:17;6.67;;;2.40;;
77430;SDS011;66498;48.564;19.272;2023-08-12T11:20:44;4.97;;;2.40;;
77430;SDS011;66498;48.564;19.272;2023-08-12T11:23:12;3.15;;;2.20;;
77430;SDS011;66498;48.564;19.272;2023-08-12T11:25:38;3.53;;;2.40;;
77430;SDS011;66498;48.564;19.272;2023-08-12T11:28:05;3.13;;;2.40;;
77430;SDS011;66498;48.564;19.272;2023-08-12T11:30:32;4.15;;;2.50;;
77430;SDS011;66498;48.564;19.272;2023-08-12T11:32:59;2.67;;;2.30;;
77430;SDS011;66498;48.564;19.272;2023-08-12T11:35:26;3.33;;;2.50;;
77430;SDS011;66498;48.564;19.272;2023-08-12T11:37:53;3.10;;;2.40;;
77430;SDS011;66498;48.564;19.272;2023-08-12T11:40:21;2.97;;;2.50;;
77430;SDS011;66498;48.564;19.272;2023-08-12T11:42:49;4.07;;;2.80;;
77430;SDS011;66498;48.564;19.272;2023-08-12T11:45:16;2.90;;;2.50;;
77430;SDS011;66498;48.564;19.272;2023-08-12T11:47:43;3.38;;;2.28;;
77430;SDS011;66498;48.564;19.272;2023-08-12T11:52:57;4.20;;;2.30;;
77430;SDS011;66498;48.564;19.272;2023-08-12T11:55:23;3.65;;;2.25;;
77430;SDS011;66498;48.564;19.272;2023-08-12T11:57:52;4.40;;;2.20;;
77430;SDS011;66498;48.564;19.272;2023-08-12T12:00:19;3.85;;;2.20;;
77430;SDS011;66498;48.564;19.272;2023-08-12T12:02:46;2.50;;;2.30;;
77430;SDS011;66498;48.564;19.272;2023-08-12T12:05:14;2.53;;;2.10;;
77430;SDS011;66498;48.564;19.272;2023-08-12T12:07:40;2.47;;;2.10;;
77430;SDS011;66498;48.564;19.272;2023-08-12T12:10:06;3.10;;;2.50;;
77430;SDS011;66498;48.564;19.272;2023-08-12T12:12:33;5.18;;;2.45;;
77430;SDS011;66498;48.564;19.272;2023-08-12T12:15:03;2.50;;;2.30;;
77430;SDS011;66498;48.564;19.272;2023-08-12T12:17:30;3.20;;;2.15;;
77430;SDS011;66498;48.564;19.272;2023-08-12T12:19:57;2.92;;;2.20;;
77430;SDS011;66498;48.564;19.272;2023-08-12T12:22:28;2.83;;;2.30;;
77430;SDS011;66498;48.564;19.272;2023-08-12T12:24:58;3.03;;;2.10;;
77430;SDS011;66498;48.564;19.272;2023-08-12T12:27:26;3.08;;;2.38;;
77430;SDS011;66498;48.564;19.272;2023-08-12T12:29:53;3.85;;;2.55;;
77430;SDS011;66498;48.564;19.272;2023-08-12T12:32:19;3.35;;;2.63;;
77430;SDS011;66498;48.564;19.272;2023-08-12T12:34:46;2.75;;;2.33;;
77430;SDS011;66498;48.564;19.272;2023-08-12T12:37:12;2.60;;;2.40;;
77430;SDS011;66498;48.564;19.272;2023-08-12T12:39:38;2.95;;;2.38;;
77430;SDS011;66498;48.564;19.272;2023-08-12T12:42:05;2.72;;;2.25;;
77430;SDS011;66498;48.564;19.272;2023-08-12T12:44:30;2.97;;;2.50;;
77430;SDS011;66498;48.564;19.272;2023-08-12T12:46:56;2.45;;;2.20;;
77430;SDS011;66498;48.564;19.272;2023-08-12T12:49:22;2.90;;;2.40;;
77430;SDS011;66498;48.564;19.272;2023-08-12T12:51:48;3.05;;;2.60;;
77430;SDS011;66498;48.564;19.272;2023-08-12T12:54:14;2.58;;;2.30;;
77430;SDS011;66498;48.564;19.272;2023-08-12T12:56:40;3.10;;;2.33;;
77430;SDS011;66498;48.564;19.272;2023-08-12T12:59:08;2.72;;;2.38;;
77430;SDS011;66498;48.564;19.272;2023-08-12T13:01:33;3.58;;;2.55;;
77430;SDS011;66498;48.564;19.272;2023-08-12T13:03:59;2.85;;;2.50;;
77430;SDS011;66498;48.564;19.272;2023-08-12T13:06:24;3.28;;;2.65;;
77430;SDS011;66498;48.564;19.272;2023-08-12T13:08:50;3.33;;;2.30;;
77430;SDS011;66498;48.564;19.272;2023-08-12T13:11:16;3.13;;;2.30;;
77430;SDS011;66498;48.564;19.272;2023-08-12T13:13:42;2.67;;;2.22;;
77430;SDS011;66498;48.564;19.272;2023-08-12T13:16:07;5.55;;;2.55;;
77430;SDS011;66498;48.564;19.272;2023-08-12T13:18:33;2.33;;;2.13;;
77430;SDS011;66498;48.564;19.272;2023-08-12T13:20:59;3.10;;;2.22;;
77430;SDS011;66498;48.564;19.272;2023-08-12T13:23:25;2.75;;;2.40;;
77430;SDS011;66498;48.564;19.272;2023-08-12T13:25:51;3.65;;;2.50;;
77430;SDS011;66498;48.564;19.272;2023-08-12T13:28:17;2.95;;;2.60;;
77430;SDS011;66498;48.564;19.272;2023-08-12T13:30:43;3.10;;;2.55;;
77430;SDS011;66498;48.564;19.272;2023-08-12T13:33:09;4.30;;;2.65;;
77430;SDS011;66498;48.564;19.272;2023-08-12T13:35:35;6.07;;;2.70;;
77430;SDS011;66498;48.564;19.272;2023-08-12T13:38:00;4.15;;;2.75;;
77430;SDS011;66498;48.564;19.272;2023-08-12T13:40:26;2.85;;;2.40;;
77430;SDS011;66498;48.564;19.272;2023-08-12T13:42:52;2.80;;;2.50;;
77430;SDS011;66498;48.564;19.272;2023-08-12T13:45:18;3.00;;;2.38;;
77430;SDS011;66498;48.564;19.272;2023-08-12T13:47:43;2.88;;;2.55;;
77430;SDS011;66498;48.564;19.272;2023-08-12T13:50:09;2.97;;;2.30;;
77430;SDS011;66498;48.564;19.272;2023-08-12T13:52:35;4.97;;;3.97;;
77430;SDS011;66498;48.564;19.272;2023-08-12T13:55:01;4.03;;;2.60;;
77430;SDS011;66498;48.564;19.272;2023-08-12T13:57:27;3.92;;;2.53;;
77430;SDS011;66498;48.564;19.272;2023-08-12T13:59:52;3.00;;;2.70;;
77430;SDS011;66498;48.564;19.272;2023-08-12T14:02:18;4.20;;;2.65;;
77430;SDS011;66498;48.564;19.272;2023-08-12T14:04:45;2.67;;;2.20;;
77430;SDS011;66498;48.564;19.272;2023-08-12T14:07:11;6.00;;;2.72;;
77430;SDS011;66498;48.564;19.272;2023-08-12T14:09:36;3.42;;;2.40;;
77430;SDS011;66498;48.564;19.272;2023-08-12T14:12:02;3.22;;;2.60;;
77430;SDS011;66498;48.564;19.272;2023-08-12T14:14:28;2.83;;;2.38;;
77430;SDS011;66498;48.564;19.272;2023-08-12T14:16:55;2.80;;;2.50;;
77430;SDS011;66498;48.564;19.272;2023-08-12T14:19:21;4.80;;;2.70;;
77430;SDS011;66498;48.564;19.272;2023-08-12T14:21:47;3.95;;;2.70;;
77430;SDS011;66498;48.564;19.272;2023-08-12T14:24:13;3.05;;;2.53;;
77430;SDS011;66498;48.564;19.272;2023-08-12T14:26:39;3.53;;;2.38;;
77430;SDS011;66498;48.564;19.272;2023-08-12T14:29:05;3.75;;;2.75;;
77430;SDS011;66498;48.564;19.272;2023-08-12T14:31:31;2.92;;;2.55;;
77430;SDS011;66498;48.564;19.272;2023-08-12T14:33:58;3.47;;;2.45;;
77430;SDS011;66498;48.564;19.272;2023-08-12T14:36:23;3.53;;;2.70;;
77430;SDS011;66498;48.564;19.272;2023-08-12T14:38:52;3.33;;;2.50;;
77430;SDS011;66498;48.564;19.272;2023-08-12T14:41:18;4.32;;;2.80;;
77430;SDS011;66498;48.564;19.272;2023-08-12T14:43:43;5.60;;;2.75;;
77430;SDS011;66498;48.564;19.272;2023-08-12T14:46:09;3.65;;;2.63;;
77430;SDS011;66498;48.564;19.272;2023-08-12T14:48:35;2.78;;;2.50;;
77430;SDS011;66498;48.564;19.272;2023-08-12T14:51:00;3.05;;;2.60;;